createdAt,value
2022-11-27T00:04:40.100Z,8.75
2022-11-27T00:09:38.468Z,7.13
2022-11-27T00:14:35.717Z,8.38
2022-11-27T00:19:33.434Z,7.45
2022-11-27T00:24:30.361Z,8.38
2022-11-27T00:29:28.698Z,8.27
2022-11-27T00:34:25.974Z,8.63
2022-11-27T00:39:22.940Z,9.32
2022-11-27T00:44:19.881Z,8.23
2022-11-27T00:49:17.855Z,8.98
2022-11-27T00:54:14.763Z,7.93
2022-11-27T00:59:12.039Z,8.13
2022-11-27T01:04:12.260Z,8.02
2022-11-27T01:09:12.654Z,8.77
2022-11-27T01:14:14.328Z,8.18
2022-11-27T01:19:13.472Z,8.18
2022-11-27T01:24:13.405Z,9.07
2022-11-27T01:29:11.290Z,8.10
2022-11-27T01:34:12.962Z,8.95
2022-11-27T01:39:15.501Z,7.78
2022-11-27T01:44:48.761Z,9.07
2022-11-27T01:49:51.942Z,9.90
2022-11-27T01:54:54.079Z,10.68
2022-11-27T01:59:54.495Z,11.07
2022-11-27T02:04:52.353Z,11.18
2022-11-27T02:09:50.489Z,11.05
2022-11-27T02:14:55.587Z,11.27
2022-11-27T02:20:07.964Z,11.37
2022-11-27T02:25:13.733Z,11.48
2022-11-27T02:30:12.708Z,12.27
2022-11-27T02:35:18.292Z,11.05
2022-11-27T02:40:20.272Z,11.13
2022-11-27T02:45:23.799Z,11.48
2022-11-27T02:50:24.746Z,11.02
2022-11-27T02:55:26.452Z,11.07
2022-11-27T03:00:24.767Z,9.82
2022-11-27T03:05:23.944Z,11.05
2022-11-27T03:10:26.914Z,10.57
2022-11-27T03:15:28.988Z,11.57
2022-11-27T03:20:27.902Z,8.85
2022-11-27T03:25:25.933Z,11.00
2022-11-27T03:30:22.811Z,10.38
2022-11-27T03:35:25.712Z,10.50
2022-11-27T03:40:30.495Z,9.77
2022-11-27T03:45:35.593Z,9.93
2022-11-27T03:50:43.218Z,10.53
2022-11-27T03:55:55.642Z,10.48
2022-11-27T04:00:56.139Z,13.13
2022-11-27T04:05:54.043Z,12.20
2022-11-27T04:10:51.004Z,11.45
2022-11-27T04:15:48.004Z,10.73
2022-11-27T04:20:47.993Z,10.82
2022-11-27T04:25:45.831Z,11.20
2022-11-27T04:30:43.022Z,11.57
2022-11-27T04:35:40.002Z,11.32
2022-11-27T04:40:36.957Z,11.07
2022-11-27T04:45:34.855Z,12.77
2022-11-27T04:50:31.915Z,9.90
2022-11-27T04:55:28.884Z,11.63
2022-11-27T05:00:25.971Z,12.48
2022-11-27T05:05:23.817Z,12.20
2022-11-27T05:10:20.780Z,12.82
2022-11-27T05:15:17.784Z,12.77
2022-11-27T05:20:14.770Z,13.93
2022-11-27T05:25:12.896Z,12.18
2022-11-27T05:30:10.510Z,12.38
2022-11-27T05:35:08.038Z,13.05
2022-11-27T05:40:06.848Z,12.77
2022-11-27T05:45:05.616Z,13.40
2022-11-27T05:50:03.019Z,11.15
2022-11-27T05:55:02.948Z,12.13
2022-11-27T05:59:59.994Z,12.20
2022-11-27T06:04:57.928Z,13.23
2022-11-27T06:09:56.275Z,12.75
2022-11-27T06:14:53.320Z,15.20
2022-11-27T06:19:51.095Z,14.05
2022-11-27T06:24:50.156Z,14.32
2022-11-27T06:29:50.119Z,14.02
2022-11-27T06:34:47.481Z,12.77
2022-11-27T06:39:48.384Z,16.27
2022-11-27T06:44:47.052Z,13.80
2022-11-27T06:56:30.392Z,12.27
2022-11-27T07:01:54.211Z,13.98
2022-11-27T07:06:54.948Z,16.15
2022-11-27T07:11:52.440Z,14.38
2022-11-27T07:16:49.660Z,13.82
2022-11-27T07:21:47.811Z,17.27
2022-11-27T07:26:44.997Z,15.57
2022-11-27T07:31:42.269Z,14.82
2022-11-27T07:36:46.717Z,17.13
2022-11-27T07:41:44.624Z,13.52
2022-11-27T07:46:44.971Z,12.38
2022-11-27T07:51:42.117Z,13.13
2022-11-27T07:56:39.407Z,13.70
2022-11-27T08:01:37.167Z,13.20
2022-11-27T08:06:34.403Z,12.68
2022-11-27T08:11:34.630Z,12.48
2022-11-27T08:16:35.638Z,12.23
2022-11-27T08:21:33.533Z,12.68
2022-11-27T08:26:32.526Z,13.80
2022-11-27T08:31:31.793Z,12.18
2022-11-27T08:36:29.028Z,12.43
2022-11-27T08:41:42.203Z,13.20
2022-11-27T08:46:46.935Z,12.50
2022-11-27T08:51:48.534Z,14.07
2022-11-27T08:56:46.488Z,13.23
2022-11-27T09:01:46.019Z,13.15
2022-11-27T09:06:43.879Z,14.88
2022-11-27T09:11:41.879Z,16.20
2022-11-27T09:16:39.937Z,17.15
2022-11-27T09:21:43.030Z,15.95
2022-11-27T09:26:42.677Z,15.20
2022-11-27T09:31:52.651Z,14.82
2022-11-27T09:36:54.715Z,18.17
2022-11-27T09:42:15.474Z,15.43
2022-11-27T09:47:31.128Z,16.90
2022-11-27T09:52:36.851Z,18.02
2022-11-27T10:02:35.601Z,17.83
2022-11-27T10:07:42.101Z,18.42
2022-11-27T10:12:51.891Z,18.90
2022-11-27T10:17:58.059Z,19.10
2022-11-27T10:23:00.313Z,18.15
2022-11-27T10:28:06.796Z,18.25
2022-11-27T10:33:18.282Z,18.35
2022-11-27T10:38:22.155Z,19.15
2022-11-27T10:43:21.230Z,19.60
2022-11-27T10:48:19.865Z,18.70
2022-11-27T10:53:25.702Z,18.58
2022-11-27T10:58:31.103Z,18.73
2022-11-27T11:03:28.701Z,17.65
2022-11-27T11:08:28.302Z,19.17
2022-11-27T11:13:27.423Z,17.70
2022-11-27T11:18:30.412Z,17.98
2022-11-27T11:23:31.634Z,15.68
2022-11-27T11:28:29.245Z,17.02
2022-11-27T11:33:28.082Z,17.30
2022-11-27T11:38:31.369Z,18.05
2022-11-27T11:43:29.614Z,18.70
2022-11-27T11:48:27.857Z,19.17
2022-11-27T11:53:39.448Z,17.95
2022-11-27T11:58:50.747Z,16.58
2022-11-27T12:04:07.528Z,16.20
2022-11-27T12:09:21.030Z,17.58
2022-11-27T12:14:27.683Z,20.90
2022-11-27T12:19:47.109Z,19.83
2022-11-27T12:24:54.812Z,20.05
2022-11-27T12:30:06.472Z,18.33
2022-11-27T12:35:33.970Z,16.63
2022-11-27T12:40:45.189Z,19.30
2022-11-27T12:45:53.135Z,20.27
2022-11-27T12:51:02.196Z,20.58
2022-11-27T12:56:09.549Z,17.10
2022-11-27T13:01:11.372Z,18.73
2022-11-27T13:06:12.046Z,18.70
2022-11-27T13:11:13.856Z,17.27
2022-11-27T13:16:18.796Z,18.67
2022-11-27T13:21:19.755Z,17.95
2022-11-27T13:26:26.127Z,22.67
2022-11-27T13:31:29.790Z,20.23
2022-11-27T13:36:34.698Z,21.88
2022-11-27T13:41:39.742Z,19.15
2022-11-27T13:46:47.925Z,17.60
2022-11-27T13:51:45.285Z,16.55
2022-11-27T13:56:43.102Z,16.23
2022-11-27T14:01:40.734Z,15.30
2022-11-27T14:06:42.560Z,16.88
2022-11-27T14:11:43.989Z,15.88
2022-11-27T14:16:42.185Z,18.45
2022-11-27T14:21:42.247Z,17.55
2022-11-27T14:26:41.637Z,18.92
2022-11-27T14:31:39.190Z,20.92
2022-11-27T14:36:36.985Z,20.95
2022-11-27T14:41:34.582Z,20.25
2022-11-27T14:46:34.330Z,20.40
2022-11-27T14:51:34.535Z,21.75
2022-11-27T14:56:34.509Z,19.25
2022-11-27T15:01:33.438Z,22.67
2022-11-27T15:06:36.779Z,22.27
2022-11-27T15:11:56.266Z,20.70
2022-11-27T15:16:57.361Z,20.00
2022-11-27T15:21:54.610Z,20.80
2022-11-27T15:26:55.094Z,25.30
2022-11-27T15:31:53.526Z,23.38
2022-11-27T15:36:58.427Z,22.92
2022-11-27T15:41:58.531Z,24.48
2022-11-27T15:47:01.461Z,23.80
2022-11-27T15:51:58.823Z,29.13
2022-11-27T15:56:57.147Z,27.50
2022-11-27T16:01:55.349Z,27.67
2022-11-27T16:06:52.465Z,27.65
2022-11-27T16:11:55.708Z,26.83
2022-11-27T16:17:00.838Z,30.35
2022-11-27T16:21:58.994Z,31.67
2022-11-27T16:26:56.588Z,29.10
2022-11-27T16:32:06.657Z,25.77
2022-11-27T16:37:07.566Z,24.50
2022-11-27T16:42:13.413Z,25.95
2022-11-27T16:47:12.106Z,27.83
2022-11-27T16:52:10.184Z,28.10
2022-11-27T16:57:07.560Z,25.55
2022-11-27T17:02:04.970Z,26.50
2022-11-27T17:07:03.070Z,29.02
2022-11-27T17:11:59.967Z,28.83
2022-11-27T17:16:57.693Z,28.63
2022-11-27T17:22:13.340Z,29.77
2022-11-27T17:27:21.260Z,28.30
2022-11-27T17:32:21.105Z,26.88
2022-11-27T17:37:34.359Z,28.58
2022-11-27T17:42:32.732Z,35.13
2022-11-27T17:47:34.780Z,32.05
2022-11-27T17:52:43.841Z,30.92
2022-11-27T17:58:37.392Z,32.97
2022-11-27T18:04:13.710Z,36.30
2022-11-27T18:09:12.686Z,43.55
2022-11-27T18:15:07.444Z,34.45
2022-11-27T18:20:08.794Z,37.72
2022-11-27T18:25:07.305Z,35.67
2022-11-27T18:30:05.761Z,42.53
2022-11-27T18:40:23.450Z,47.17
2022-11-27T18:45:32.781Z,41.22
2022-11-27T18:50:43.169Z,43.42
2022-11-27T18:55:48.862Z,45.70
2022-11-27T19:01:19.137Z,43.70
2022-11-27T19:06:28.080Z,46.40
2022-11-27T19:11:30.270Z,47.47
2022-11-27T19:16:31.384Z,49.85
2022-11-27T19:21:31.862Z,58.28
2022-11-27T19:26:31.810Z,46.00
2022-11-27T19:31:33.711Z,48.00
2022-11-27T19:36:42.994Z,44.83
2022-11-27T19:41:42.113Z,40.65
2022-11-27T19:46:39.646Z,39.42
2022-11-27T19:51:38.503Z,40.90
2022-11-27T19:56:37.903Z,38.05
2022-11-27T20:01:38.677Z,39.50
2022-11-27T20:06:46.232Z,39.05
2022-11-27T20:11:43.564Z,41.05
2022-11-27T20:16:46.255Z,37.47
2022-11-27T20:21:43.365Z,39.72
2022-11-27T20:26:44.510Z,36.38
2022-11-27T20:31:46.336Z,38.83
2022-11-27T20:36:46.269Z,41.03
2022-11-27T20:41:54.291Z,36.70
2022-11-27T20:46:54.787Z,36.55
2022-11-27T20:51:54.755Z,33.53
2022-11-27T20:56:53.734Z,34.95
2022-11-27T21:11:55.833Z,35.15
2022-11-27T21:16:53.820Z,31.30
2022-11-27T21:21:55.773Z,29.13
2022-11-27T21:26:55.731Z,30.63
2022-11-27T21:31:56.434Z,28.77
2022-11-27T21:36:53.859Z,30.48
2022-11-27T21:41:52.993Z,28.08
2022-11-27T21:46:50.672Z,28.50
2022-11-27T21:51:52.086Z,30.40
2022-11-27T21:56:52.074Z,31.27
2022-11-27T22:01:49.065Z,32.25
2022-11-27T22:06:46.549Z,34.90
2022-11-27T22:11:45.000Z,34.72
2022-11-27T22:16:45.664Z,33.33
2022-11-27T22:21:44.392Z,36.28
2022-11-27T22:26:41.481Z,35.17
2022-11-27T22:31:39.029Z,36.92
2022-11-27T22:36:36.293Z,35.67
2022-11-27T22:41:36.924Z,33.20
2022-11-27T22:46:35.519Z,32.65
2022-11-27T22:51:35.166Z,30.17
2022-11-27T22:56:33.265Z,32.10
2022-11-27T23:01:30.591Z,31.23
2022-11-27T23:06:27.631Z,35.00
2022-11-27T23:11:29.474Z,33.28
2022-11-27T23:16:29.406Z,32.20
2022-11-27T23:21:26.624Z,29.20
2022-11-27T23:26:24.675Z,29.92
2022-11-27T23:31:31.675Z,29.98
2022-11-27T23:36:30.558Z,30.65
2022-11-27T23:41:28.705Z,31.98
2022-11-27T23:46:28.405Z,31.48
2022-11-27T23:51:27.234Z,28.85
2022-11-27T23:56:25.991Z,30.58
